Time;durP1;ratioP1;P1;durP2;ratioP2;P2;SDS_P1;SDS_P2;PMS_P1;PMS_P2;Temp;Humidity;BMP_temperature;BMP_pressure;BME280_temperature;BME280_humidity;BME280_pressure;Samples;Min_cycle;Max_cycle;Signal;HPM_P1;HPM_P2
2021/12/12 00:02:33;;;;;;;8.45;3.60;;;;;;;5.62;65.16;97952.44;5002358;28;20266;-80
2021/12/12 00:05:06;;;;;;;10.02;6.03;;;;;;;5.69;65.05;97942.94;4989092;28;20575;-80
2021/12/12 00:07:32;;;;;;;6.40;4.00;;;;;;;5.66;65.98;97951.06;4990365;28;20259;-80
2021/12/12 00:10:09;;;;;;;12.77;5.63;;;;;;;5.56;65.49;97946.25;4985389;28;20286;-80
2021/12/12 00:12:40;;;;;;;8.00;4.47;;;;;;;5.53;66.01;97945.84;4983403;28;20192;-80
2021/12/12 00:15:08;;;;;;;8.40;3.83;;;;;;;5.61;65.29;97949.06;5000546;28;20198;-80
2021/12/12 00:17:33;;;;;;;10.32;4.88;;;;;;;5.71;65.50;97953.09;4977120;28;20186;-80
2021/12/12 00:19:59;;;;;;;12.45;4.22;;;;;;;5.71;65.25;97963.44;5003627;28;20209;-80
2021/12/12 00:22:27;;;;;;;6.53;3.63;;;;;;;5.66;65.16;97964.00;5006580;28;20180;-80
2021/12/12 00:24:53;;;;;;;8.43;3.97;;;;;;;5.77;64.74;97958.25;4986786;28;20166;-80
2021/12/12 00:27:20;;;;;;;6.47;3.60;;;;;;;5.75;65.25;97970.56;4985370;28;20230;-80
2021/12/12 00:29:45;;;;;;;7.05;3.40;;;;;;;5.68;65.36;97969.75;4989773;28;20157;-80
2021/12/12 00:32:14;;;;;;;8.70;4.13;;;;;;;5.60;65.51;97969.91;4985685;28;20189;-80
2021/12/12 00:34:45;;;;;;;6.75;3.58;;;;;;;5.59;65.48;97976.09;4989491;28;20212;-80
2021/12/12 00:37:11;;;;;;;8.27;4.10;;;;;;;5.67;65.77;97983.66;4971992;28;20356;-80
2021/12/12 00:39:39;;;;;;;11.20;4.32;;;;;;;5.55;65.57;97987.78;5003400;28;20184;-80
2021/12/12 00:42:12;;;;;;;8.30;3.53;;;;;;;5.54;65.45;97986.19;5006142;28;20242;-80
2021/12/12 00:44:40;;;;;;;7.85;3.60;;;;;;;5.53;65.49;97984.59;5002654;28;20197;-80
2021/12/12 00:47:08;;;;;;;5.90;3.45;;;;;;;5.58;65.30;97985.59;4989130;28;20264;-80
2021/12/12 00:49:37;;;;;;;5.28;2.80;;;;;;;5.67;65.63;97983.66;4969043;28;20209;-80
2021/12/12 00:52:06;;;;;;;9.95;3.30;;;;;;;5.59;64.96;97986.44;4986435;28;20260;-80
2021/12/12 00:54:32;;;;;;;7.10;3.88;;;;;;;5.74;65.10;97974.16;4989171;28;20242;-80
2021/12/12 00:57:05;;;;;;;6.60;3.55;;;;;;;5.59;65.66;97965.75;5005057;28;20193;-80
2021/12/12 00:59:31;;;;;;;6.38;2.80;;;;;;;5.67;65.88;97957.03;5005624;28;20200;-80
2021/12/12 01:01:57;;;;;;;6.15;3.05;;;;;;;5.69;64.88;97965.38;4987330;28;20204;-80
2021/12/12 01:04:34;;;;;;;8.60;2.83;;;;;;;5.54;65.27;97957.78;5005795;28;20185;-80
2021/12/12 01:07:04;;;;;;;5.82;2.53;;;;;;;5.67;65.10;97957.81;5005158;28;20177;-80
2021/12/12 01:09:34;;;;;;;7.88;4.05;;;;;;;5.62;64.59;97953.25;5000885;28;20162;-80
2021/12/12 01:12:05;;;;;;;7.45;2.95;;;;;;;5.54;65.03;97956.00;4984777;28;20179;-80
2021/12/12 01:14:34;;;;;;;7.80;2.72;;;;;;;5.57;64.66;97965.13;4994763;28;20616;-80
2021/12/12 01:17:15;;;;;;;5.40;2.33;;;;;;;5.49;65.21;97953.19;4984721;28;20296;-80
2021/12/12 01:19:49;;;;;;;7.00;2.30;;;;;;;5.56;65.03;97966.13;4982354;28;20287;-80
2021/12/12 01:22:21;;;;;;;11.00;2.90;;;;;;;5.69;64.59;97968.78;4970544;28;20239;-80
2021/12/12 01:24:50;;;;;;;4.45;1.90;;;;;;;5.73;65.47;97975.16;5002107;28;20249;-80
2021/12/12 01:27:16;;;;;;;4.63;2.58;;;;;;;5.70;64.67;97965.19;4981682;28;20166;-80
2021/12/12 01:29:42;;;;;;;6.35;1.92;;;;;;;5.63;64.65;97972.13;4994516;28;20326;-80
2021/12/12 01:32:23;;;;;;;7.15;2.00;;;;;;;5.44;65.29;97979.59;5005137;28;20335;-80
2021/12/12 01:34:51;;;;;;;7.50;2.05;;;;;;;5.58;65.19;97979.66;4989637;28;20197;-80
2021/12/12 01:39:57;;;;;;;3.58;2.10;;;;;;;5.49;65.07;97980.81;4988759;28;20281;-80
2021/12/12 01:42:28;;;;;;;5.82;2.22;;;;;;;5.46;65.32;97986.34;5004695;28;20342;-80
2021/12/12 01:45:08;;;;;;;5.75;2.60;;;;;;;5.47;64.91;97993.09;4971924;28;20177;-80
2021/12/12 01:47:47;;;;;;;4.32;2.30;;;;;;;5.37;65.29;97994.25;4999370;28;20655;-80
2021/12/12 01:50:22;;;;;;;7.75;2.65;;;;;;;5.42;65.15;97997.06;5000286;28;20505;-80
2021/12/12 01:52:50;;;;;;;8.70;2.80;;;;;;;5.41;65.11;97992.88;5004300;28;20189;-80
2021/12/12 01:55:24;;;;;;;5.07;2.33;;;;;;;5.37;65.03;97999.41;4985546;28;20270;-80
2021/12/12 01:57:53;;;;;;;6.95;2.13;;;;;;;5.42;65.08;97993.69;5001206;28;20188;-80
2021/12/12 02:00:40;;;;;;;5.15;2.35;;;;;;;5.28;65.31;97999.75;5002925;28;20212;-80
2021/12/12 02:03:08;;;;;;;6.95;1.92;;;;;;;5.45;64.81;98003.66;5002864;28;20673;-80
2021/12/12 02:05:34;;;;;;;4.70;1.60;;;;;;;5.49;64.98;97996.31;4994944;28;20284;-79
2021/12/12 02:08:04;;;;;;;4.80;1.67;;;;;;;5.43;65.08;97996.09;4987739;28;20213;-80
2021/12/12 02:10:33;;;;;;;6.13;1.92;;;;;;;5.42;64.65;97999.66;4987521;28;20208;-80
2021/12/12 02:13:01;;;;;;;4.90;1.92;;;;;;;5.40;64.60;97993.88;4994603;28;20223;-80
2021/12/12 02:15:29;;;;;;;4.55;1.75;;;;;;;5.37;64.94;97994.25;4998987;28;20179;-80
2021/12/12 02:17:55;;;;;;;2.67;1.90;;;;;;;5.34;65.37;97989.47;4991156;28;20182;-79
2021/12/12 02:20:34;;;;;;;5.95;2.00;;;;;;;5.36;64.82;97995.22;4994480;28;20240;-80
2021/12/12 02:23:56;;;;;;;3.65;2.03;;;;;;;5.32;64.57;97996.59;5004248;28;20630;-80
2021/12/12 02:36:59;;;;;;;3.67;1.50;;;;;;;5.08;64.56;97984.94;4998419;28;20219;-80
2021/12/12 02:39:24;;;;;;;7.28;1.80;;;;;;;5.18;65.35;97989.78;5002119;28;20289;-80
2021/12/12 02:41:53;;;;;;;5.75;1.70;;;;;;;5.09;65.38;97996.06;4987448;28;20203;-80
2021/12/12 02:44:27;;;;;;;4.75;1.67;;;;;;;5.14;64.98;98001.44;4987268;28;20146;-80
2021/12/12 02:46:57;;;;;;;3.65;2.15;;;;;;;5.11;65.29;97992.31;5003254;28;20721;-80
2021/12/12 02:49:54;;;;;;;6.15;1.90;;;;;;;5.05;65.32;97990.47;4974892;28;20281;-80
2021/12/12 02:52:14;;;;;;;7.63;2.38;;;;;;;4.94;65.43;97996.97;4995717;28;20304;-80
2021/12/12 02:54:40;;;;;;;4.03;1.48;;;;;;;4.96;65.50;97996.78;5004675;28;20595;-80
2021/12/12 02:57:09;;;;;;;5.35;1.80;;;;;;;4.87;65.62;97999.50;4982875;28;20279;-80
2021/12/12 02:59:36;;;;;;;5.50;1.80;;;;;;;4.90;65.72;98000.09;5004001;28;20220;-80
2021/12/12 03:02:07;;;;;;;4.57;1.33;;;;;;;4.85;65.46;97996.31;5002721;28;20273;-80
2021/12/12 03:04:33;;;;;;;3.50;1.33;;;;;;;4.92;65.37;97998.94;4970942;28;20197;-80
2021/12/12 03:06:59;;;;;;;4.43;1.60;;;;;;;4.89;66.00;97999.31;4980216;28;20270;-80
2021/12/12 03:09:33;;;;;;;3.72;1.90;;;;;;;4.76;65.51;97999.19;4987206;28;20190;-80
2021/12/12 03:12:05;;;;;;;5.18;1.58;;;;;;;4.83;65.77;98003.44;4987375;28;20309;-80
2021/12/12 03:14:33;;;;;;;6.32;1.50;;;;;;;4.85;65.89;97998.09;4997838;28;20655;-80
2021/12/12 03:17:12;;;;;;;5.88;1.48;;;;;;;4.60;65.81;97983.00;4987378;28;20189;-79
2021/12/12 03:19:38;;;;;;;5.25;1.63;;;;;;;4.82;65.65;97985.56;4987256;28;20327;-80
2021/12/12 03:22:09;;;;;;;5.05;1.73;;;;;;;4.78;65.72;97990.31;5002610;28;20698;-80
2021/12/12 03:24:35;;;;;;;5.60;1.65;;;;;;;4.89;65.80;97991.56;4985448;28;20721;-80
2021/12/12 03:27:04;;;;;;;3.30;1.45;;;;;;;4.78;65.81;97992.06;4998663;28;20257;-80
2021/12/12 03:29:29;;;;;;;8.85;1.95;;;;;;;4.86;65.27;97997.09;4987097;28;20212;-80
2021/12/12 03:32:00;;;;;;;4.03;1.33;;;;;;;4.76;65.51;97991.47;4980868;28;20197;-80
2021/12/12 03:34:30;;;;;;;2.85;1.70;;;;;;;4.77;65.23;97995.66;4986084;28;20295;-80
2021/12/12 03:36:55;;;;;;;4.65;1.55;;;;;;;4.89;65.89;97996.72;4986293;28;20597;-80
2021/12/12 03:39:24;;;;;;;8.32;2.28;;;;;;;4.74;66.09;97996.00;4997611;28;20372;-80
2021/12/12 03:41:51;;;;;;;6.65;1.70;;;;;;;4.79;66.08;97998.81;5003514;28;20274;-80
2021/12/12 03:44:20;;;;;;;4.82;1.23;;;;;;;4.65;65.44;97996.13;4996061;28;20163;-80
2021/12/12 03:46:48;;;;;;;4.78;1.42;;;;;;;4.70;65.89;97998.16;4986514;28;20256;-80
2021/12/12 03:49:13;;;;;;;2.50;1.13;;;;;;;4.71;65.75;97993.78;4986777;28;20158;-80
2021/12/12 03:51:40;;;;;;;8.35;1.88;;;;;;;4.74;65.67;97990.84;4969978;28;20238;-80
2021/12/12 03:54:06;;;;;;;2.20;1.00;;;;;;;4.83;65.91;98000.03;4973775;28;20190;-80
2021/12/12 03:56:32;;;;;;;7.95;1.70;;;;;;;4.70;65.62;97993.00;4969753;28;20204;-80
2021/12/12 03:58:57;;;;;;;6.63;1.55;;;;;;;4.91;65.54;97994.75;4969656;28;20208;-81
2021/12/12 04:01:25;;;;;;;5.50;2.40;;;;;;;4.86;65.35;97994.50;4986838;28;20665;-80
2021/12/12 04:03:52;;;;;;;8.02;1.80;;;;;;;4.68;65.57;97998.34;4986691;28;20600;-80
2021/12/12 04:06:21;;;;;;;5.72;1.70;;;;;;;4.60;66.20;98002.84;4994248;28;20668;-80
2021/12/12 04:08:49;;;;;;;3.83;1.50;;;;;;;4.81;66.00;97995.06;4988594;28;20742;-80
2021/12/12 04:11:18;;;;;;;3.33;1.10;;;;;;;4.85;65.86;97992.94;5003215;28;20243;-81
2021/12/12 04:13:45;;;;;;;6.00;1.27;;;;;;;4.90;65.57;97987.19;5002894;28;20206;-80
2021/12/12 04:16:11;;;;;;;6.10;1.33;;;;;;;4.94;65.34;97991.81;4986301;28;20394;-81
2021/12/12 04:18:37;;;;;;;6.53;2.10;;;;;;;4.87;65.98;97996.91;5002887;28;20307;-80
2021/12/12 04:21:04;;;;;;;7.20;1.70;;;;;;;4.93;65.75;97995.34;4979587;28;20649;-81
2021/12/12 04:23:29;;;;;;;4.38;1.13;;;;;;;4.93;66.07;97992.78;5003325;28;20150;-80
2021/12/12 04:26:23;;;;;;;4.32;1.30;;;;;;;4.89;65.15;97991.56;5003011;28;20642;-81
2021/12/12 04:28:56;;;;;;;5.35;1.15;;;;;;;5.00;64.70;98003.97;4983591;28;20362;-80
2021/12/12 04:31:22;;;;;;;4.18;1.88;;;;;;;5.09;64.74;98007.19;5005344;28;20321;-81
2021/12/12 04:33:47;;;;;;;4.95;2.03;;;;;;;5.09;64.96;98007.19;4997358;28;20360;-81
2021/12/12 04:36:12;;;;;;;7.10;2.30;;;;;;;5.11;64.26;98005.22;4979726;28;20171;-80
2021/12/12 04:38:38;;;;;;;6.07;1.75;;;;;;;5.12;64.78;98008.59;4966288;28;20666;-80
2021/12/12 04:41:03;;;;;;;3.20;1.27;;;;;;;5.15;64.65;98009.00;5001796;28;20335;-80
2021/12/12 04:43:29;;;;;;;4.30;1.20;;;;;;;5.05;64.80;98011.94;4978436;28;20673;-81
2021/12/12 04:46:20;;;;;;;3.75;1.20;;;;;;;5.16;64.57;98017.56;4986272;28;20274;-80
2021/12/12 04:51:57;;;;;;;6.97;2.25;;;;;;;4.85;64.65;98005.84;5001225;28;20200;-81
2021/12/12 04:54:22;;;;;;;3.38;1.33;;;;;;;5.14;65.22;98011.78;4997568;28;20201;-80
2021/12/12 04:56:47;;;;;;;6.68;1.52;;;;;;;5.16;64.97;98007.25;5006057;28;20184;-81
2021/12/12 04:59:28;;;;;;;3.22;1.60;;;;;;;4.94;64.30;98012.44;5006622;28;20269;-80
2021/12/12 05:02:15;;;;;;;3.38;1.40;;;;;;;5.02;65.00;98026.97;4999861;28;20212;-80
2021/12/12 05:05:10;;;;;;;3.17;0.90;;;;;;;5.25;64.77;98009.47;5004926;28;20184;-80
2021/12/12 05:07:49;;;;;;;4.03;1.33;;;;;;;5.01;64.88;98010.72;4996875;28;20612;-80
2021/12/12 05:10:22;;;;;;;5.40;1.40;;;;;;;5.00;64.57;98011.72;5006720;28;20197;-81
2021/12/12 05:13:18;;;;;;;4.65;1.15;;;;;;;5.01;65.09;98010.72;5016800;28;20192;-81
2021/12/12 05:15:46;;;;;;;3.92;0.88;;;;;;;5.13;64.81;98012.78;5001915;28;20213;-80
2021/12/12 05:18:28;;;;;;;3.65;1.25;;;;;;;5.10;64.63;98010.56;4984876;28;20840;-80
2021/12/12 05:21:00;;;;;;;5.75;1.17;;;;;;;5.08;64.34;98015.91;4973158;28;20350;-80
2021/12/12 05:23:27;;;;;;;8.20;1.63;;;;;;;5.11;64.65;98020.72;4976505;28;20362;-80
2021/12/12 05:25:57;;;;;;;5.47;1.63;;;;;;;5.07;64.69;98024.63;4989574;28;20201;-80
2021/12/12 05:28:27;;;;;;;3.47;1.20;;;;;;;5.23;64.00;98026.16;5016169;28;20209;-81
2021/12/12 05:30:53;;;;;;;2.97;1.05;;;;;;;5.35;64.18;98024.63;4990491;28;20364;-80
2021/12/12 05:33:18;;;;;;;5.22;1.58;;;;;;;5.23;64.26;98032.09;4989444;28;20552;-80
2021/12/12 05:35:46;;;;;;;3.33;0.88;;;;;;;5.33;63.95;98036.94;4989024;28;20324;-81
2021/12/12 05:38:12;;;;;;;5.75;0.90;;;;;;;5.33;63.34;98038.72;4988715;28;20181;-81
2021/12/12 05:40:42;;;;;;;7.72;1.30;;;;;;;5.37;63.56;98045.13;4989144;28;20258;-80
2021/12/12 05:43:08;;;;;;;2.95;1.30;;;;;;;5.39;64.44;98043.91;4988245;28;20203;-80
2021/12/12 05:45:35;;;;;;;3.65;1.23;;;;;;;5.41;63.73;98046.31;4989002;28;20170;-81
2021/12/12 05:48:03;;;;;;;2.42;1.10;;;;;;;5.44;63.69;98046.72;5005102;28;20242;-80
2021/12/12 05:50:29;;;;;;;2.53;1.02;;;;;;;5.57;63.96;98060.72;5002209;28;20179;-80
2021/12/12 05:52:55;;;;;;;3.28;1.20;;;;;;;5.56;63.50;98053.97;4987980;28;20212;-80
2021/12/12 05:55:26;;;;;;;4.90;1.35;;;;;;;5.35;63.93;98052.25;4998281;28;20708;-80
2021/12/12 05:57:55;;;;;;;2.83;1.17;;;;;;;5.52;63.56;98063.06;5005039;28;20277;-81
2021/12/12 06:00:26;;;;;;;4.90;0.90;;;;;;;5.37;63.79;98056.22;5004828;28;20300;-80
2021/12/12 06:02:53;;;;;;;2.50;0.93;;;;;;;5.47;64.01;98053.31;4971201;28;20173;-80
2021/12/12 06:05:19;;;;;;;3.25;0.88;;;;;;;5.50;63.98;98057.28;4965054;28;20100;-80
2021/12/12 06:07:44;;;;;;;2.58;1.00;;;;;;;5.42;63.35;98047.94;5004004;28;20273;-79
2021/12/12 06:10:12;;;;;;;6.10;1.42;;;;;;;5.39;63.89;98051.66;4987820;28;20209;-80
2021/12/12 06:12:37;;;;;;;4.13;0.95;;;;;;;5.50;63.66;98058.13;5004510;28;20251;-79
2021/12/12 06:15:06;;;;;;;2.45;1.02;;;;;;;5.46;63.26;98062.03;4967753;28;20210;-80
2021/12/12 06:17:31;;;;;;;5.35;0.80;;;;;;;5.50;63.41;98060.69;4985713;28;20182;-80
2021/12/12 06:19:58;;;;;;;2.40;1.27;;;;;;;5.52;63.02;98066.47;5004230;28;20230;-80
2021/12/12 06:22:23;;;;;;;3.53;1.00;;;;;;;5.54;63.78;98067.06;5003828;28;20089;-79
2021/12/12 06:24:50;;;;;;;4.47;1.00;;;;;;;5.59;63.53;98075.03;4984231;28;20205;-80
2021/12/12 06:27:18;;;;;;;5.20;1.40;;;;;;;5.50;63.48;98070.22;4987487;28;20207;-79
2021/12/12 06:29:46;;;;;;;5.30;1.00;;;;;;;5.46;63.70;98074.16;4992944;28;20104;-80
2021/12/12 06:32:12;;;;;;;3.85;1.48;;;;;;;5.37;63.65;98074.31;4995694;28;20342;-79
2021/12/12 06:34:37;;;;;;;6.03;0.90;;;;;;;5.47;63.55;98073.97;4999415;28;20836;-79
2021/12/12 06:37:03;;;;;;;4.13;1.25;;;;;;;5.43;63.27;98081.31;5001738;28;20284;-80
2021/12/12 06:39:29;;;;;;;2.88;0.90;;;;;;;5.46;63.34;98074.16;5001275;28;20175;-80
2021/12/12 06:41:55;;;;;;;4.78;1.00;;;;;;;5.52;63.62;98078.56;4995002;28;20582;-80
2021/12/12 06:44:20;;;;;;;3.35;1.50;;;;;;;5.37;63.57;98076.88;4981735;28;20648;-80
2021/12/12 06:46:46;;;;;;;3.45;0.90;;;;;;;5.47;63.51;98070.59;4978218;28;20200;-79
2021/12/12 06:49:15;;;;;;;4.97;1.60;;;;;;;5.38;63.54;98078.50;4987591;28;20200;-80
2021/12/12 06:51:44;;;;;;;3.75;1.20;;;;;;;5.36;63.93;98083.03;4987853;28;20676;-79
2021/12/12 06:54:14;;;;;;;3.65;1.10;;;;;;;5.33;63.40;98077.44;4987909;28;20285;-79
2021/12/12 06:56:39;;;;;;;3.00;0.80;;;;;;;5.51;63.46;98082.16;5004031;28;20651;-80
2021/12/12 06:59:05;;;;;;;3.05;0.90;;;;;;;5.44;63.49;98072.56;4983692;28;20189;-79
2021/12/12 07:01:33;;;;;;;5.97;1.40;;;;;;;5.35;63.66;98078.06;5004554;28;20278;-80
2021/12/12 07:04:00;;;;;;;3.40;1.17;;;;;;;5.43;63.03;98075.31;4986417;28;20282;-80
2021/12/12 07:06:27;;;;;;;3.75;1.15;;;;;;;5.51;63.41;98077.78;4999512;28;20285;-80
2021/12/12 07:08:57;;;;;;;3.80;0.90;;;;;;;5.55;62.54;98083.34;4982728;28;20214;-80
2021/12/12 07:11:24;;;;;;;3.05;1.10;;;;;;;5.53;62.90;98078.38;4987996;28;20257;-79
2021/12/12 07:13:50;;;;;;;3.10;1.10;;;;;;;5.63;62.77;98078.03;4987200;28;20371;-80
2021/12/12 07:16:16;;;;;;;3.92;1.52;;;;;;;5.59;63.48;98080.22;4971456;28;20204;-79
2021/12/12 07:18:43;;;;;;;2.45;0.70;;;;;;;5.52;62.95;98087.13;4987608;28;20619;-79
2021/12/12 07:21:11;;;;;;;3.70;1.20;;;;;;;5.50;62.96;98089.09;4987283;28;20243;-80
2021/12/12 07:23:38;;;;;;;3.10;0.88;;;;;;;5.23;63.29;98095.88;4987290;28;20715;-79
2021/12/12 07:26:05;;;;;;;5.35;1.10;;;;;;;5.44;63.12;98082.91;5004023;28;20208;-80
2021/12/12 07:28:31;;;;;;;2.60;1.30;;;;;;;5.45;63.40;98083.72;5004014;28;20285;-79
2021/12/12 07:31:02;;;;;;;3.22;0.93;;;;;;;5.49;63.15;98091.88;4997603;28;20190;-79
2021/12/12 07:33:29;;;;;;;4.47;1.40;;;;;;;5.53;63.05;98087.91;4997830;28;20622;-79
2021/12/12 07:35:58;;;;;;;2.47;0.85;;;;;;;5.56;63.18;98090.13;4993566;28;20292;-79
2021/12/12 07:38:24;;;;;;;3.75;1.55;;;;;;;5.56;62.88;98090.91;5004403;28;20231;-80
2021/12/12 07:40:50;;;;;;;4.68;1.13;;;;;;;5.41;63.64;98093.59;4973970;28;20205;-79
2021/12/12 07:43:15;;;;;;;3.88;1.02;;;;;;;5.61;62.79;98103.28;4990253;28;20183;-79
2021/12/12 07:45:41;;;;;;;4.03;0.90;;;;;;;5.42;63.30;98092.63;4987752;28;20659;-80
2021/12/12 07:48:09;;;;;;;4.85;1.67;;;;;;;5.56;63.23;98097.88;5007582;28;20189;-79
2021/12/12 07:50:35;;;;;;;6.07;1.65;;;;;;;5.67;63.60;98096.53;4994899;28;20205;-80
2021/12/12 07:53:00;;;;;;;5.22;1.40;;;;;;;5.39;64.15;98103.31;4997454;28;20643;-79
2021/12/12 07:55:26;;;;;;;4.68;1.30;;;;;;;5.60;63.77;98097.31;4971449;28;20206;-79
2021/12/12 07:57:52;;;;;;;3.17;1.10;;;;;;;5.59;64.06;98102.69;4997023;28;20279;-80
2021/12/12 08:00:22;;;;;;;3.17;1.08;;;;;;;5.61;63.62;98098.13;5003952;28;20709;-80
2021/12/12 08:02:49;;;;;;;3.85;0.93;;;;;;;5.74;64.09;98095.63;4961271;28;20213;-80
2021/12/12 08:05:17;;;;;;;4.10;1.40;;;;;;;5.71;63.63;98101.16;5003826;28;20572;-80
2021/12/12 08:07:43;;;;;;;5.53;0.95;;;;;;;5.72;64.11;98094.97;4970293;28;20604;-80
2021/12/12 08:10:12;;;;;;;5.85;1.58;;;;;;;5.56;63.72;98096.09;4999969;28;20287;-79
2021/12/12 08:12:38;;;;;;;3.65;1.35;;;;;;;5.70;64.10;98106.50;4967666;28;20166;-79
2021/12/12 08:15:08;;;;;;;3.80;1.38;;;;;;;5.72;64.07;98100.16;4999642;28;20192;-79
2021/12/12 08:17:33;;;;;;;4.50;0.90;;;;;;;5.79;63.75;98103.59;5006151;28;20361;-82
2021/12/12 08:19:59;;;;;;;4.28;1.15;;;;;;;5.84;63.40;98105.59;5003433;28;20318;-80
2021/12/12 08:22:26;;;;;;;5.68;0.98;;;;;;;5.78;64.13;98117.50;4985693;28;20400;-79
2021/12/12 08:24:53;;;;;;;2.80;0.98;;;;;;;5.78;63.92;98112.31;4997758;28;20250;-79
2021/12/12 08:27:19;;;;;;;5.88;2.55;;;;;;;5.88;63.45;98108.59;4980278;28;20239;-80
2021/12/12 08:29:44;;;;;;;2.75;1.00;;;;;;;5.82;63.36;98116.13;5018781;28;20223;-80
2021/12/12 08:32:12;;;;;;;2.35;1.23;;;;;;;5.81;64.04;98117.13;4990931;28;20609;-80
2021/12/12 08:34:37;;;;;;;1.65;1.00;;;;;;;6.01;63.66;98119.03;4990152;28;20181;-79
2021/12/12 08:37:04;;;;;;;6.65;1.38;;;;;;;5.88;63.22;98124.09;5005960;28;20157;-79
2021/12/12 08:39:30;;;;;;;3.47;1.17;;;;;;;5.96;62.97;98122.22;5007375;28;20165;-80
2021/12/12 08:41:56;;;;;;;3.53;1.30;;;;;;;6.00;63.33;98125.22;5005734;28;20246;-79
2021/12/12 08:44:23;;;;;;;3.38;0.85;;;;;;;6.03;62.67;98126.59;4994047;28;20195;-79
2021/12/12 08:46:52;;;;;;;3.60;1.05;;;;;;;6.03;62.56;98122.22;4984241;28;20701;-79
2021/12/12 08:49:19;;;;;;;3.13;1.10;;;;;;;6.10;62.98;98133.41;5004681;28;20785;-79
2021/12/12 08:51:49;;;;;;;3.75;1.30;;;;;;;6.09;63.25;98134.41;4990130;28;20185;-80
2021/12/12 08:54:23;;;;;;;5.22;1.02;;;;;;;6.14;62.43;98139.78;5001171;28;20302;-79
2021/12/12 08:56:54;;;;;;;5.60;0.90;;;;;;;6.12;62.88;98139.19;5004942;28;20188;-79
2021/12/12 08:59:25;;;;;;;5.18;2.22;;;;;;;6.12;62.15;98140.97;4990640;28;20229;-80
2021/12/12 09:01:54;;;;;;;2.13;0.80;;;;;;;6.28;61.48;98148.41;5006932;28;20288;-79
2021/12/12 09:04:21;;;;;;;2.30;0.90;;;;;;;5.98;62.04;98143.50;5004046;28;20283;-80
2021/12/12 09:06:55;;;;;;;2.17;1.08;;;;;;;6.00;62.71;98148.47;5006294;28;20215;-79
2021/12/12 09:09:28;;;;;;;3.43;0.77;;;;;;;6.05;62.30;98143.53;4987311;28;20272;-80
2021/12/12 09:12:02;;;;;;;1.65;0.90;;;;;;;6.08;62.24;98145.72;4983412;28;20553;-80
2021/12/12 09:14:49;;;;;;;4.47;1.00;;;;;;;6.17;62.23;98136.03;5007094;28;20170;-80
2021/12/12 09:17:30;;;;;;;2.95;1.48;;;;;;;6.22;62.18;98138.84;4983947;28;20502;-80
2021/12/12 09:20:05;;;;;;;5.53;1.17;;;;;;;6.12;62.12;98141.78;4986029;28;20240;-79
2021/12/12 09:22:34;;;;;;;4.05;1.38;;;;;;;6.32;61.54;98146.22;4983592;28;20239;-80
2021/12/12 09:25:23;;;;;;;3.17;1.00;;;;;;;6.33;61.66;98138.28;5000337;28;20421;-80
2021/12/12 09:27:54;;;;;;;3.15;1.17;;;;;;;6.32;62.56;98146.22;4997274;28;20190;-80
2021/12/12 09:30:23;;;;;;;4.13;0.80;;;;;;;6.37;62.75;98157.59;4981333;28;20291;-79
2021/12/12 09:32:55;;;;;;;3.60;1.10;;;;;;;6.44;61.46;98152.44;4956444;28;20221;-80
2021/12/12 09:35:25;;;;;;;3.70;1.05;;;;;;;6.53;62.49;98142.75;4989383;28;20199;-79
2021/12/12 09:38:09;;;;;;;4.30;1.05;;;;;;;6.67;61.78;98138.41;4993388;28;20652;-80
2021/12/12 09:40:41;;;;;;;4.28;1.05;;;;;;;6.43;61.55;98139.72;5006391;28;20189;-80
2021/12/12 09:43:25;;;;;;;4.10;0.90;;;;;;;6.46;62.53;98128.97;5005815;28;20184;-80
2021/12/12 09:45:53;;;;;;;4.13;1.15;;;;;;;6.56;62.29;98121.63;5005800;28;20217;-79
2021/12/12 09:51:22;;;;;;;4.10;0.98;;;;;;;6.32;62.53;98136.69;5006943;28;20210;-80
2021/12/12 09:54:25;;;;;;;2.78;1.00;;;;;;;6.55;61.56;98141.53;4989480;28;20658;-80
2021/12/12 09:57:09;;;;;;;5.38;1.27;;;;;;;6.47;61.87;98133.94;5007449;28;20178;-80
2021/12/12 09:59:46;;;;;;;4.68;1.30;;;;;;;6.57;61.47;98138.75;5000427;28;20289;-80
2021/12/12 10:02:27;;;;;;;2.90;1.15;;;;;;;6.63;61.97;98132.00;5005613;28;20688;-80
2021/12/12 10:05:30;;;;;;;6.68;2.00;;;;;;;6.60;61.89;98134.97;4993140;28;20142;-80
2021/12/12 10:08:01;;;;;;;1.75;0.98;;;;;;;6.79;62.17;98131.66;5004913;28;20201;-80
2021/12/12 10:10:34;;;;;;;4.65;2.10;;;;;;;6.71;61.86;98132.63;5005573;28;20185;-80
2021/12/12 10:13:14;;;;;;;5.05;1.50;;;;;;;6.64;61.76;98138.78;5005634;28;20663;-80
2021/12/12 10:15:45;;;;;;;7.22;1.50;;;;;;;6.77;61.82;98138.00;4989812;28;20692;-80
2021/12/12 10:18:19;;;;;;;3.15;1.25;;;;;;;6.84;61.35;98139.63;4988770;28;20208;-80
2021/12/12 10:21:05;;;;;;;6.28;1.80;;;;;;;6.65;62.47;98125.66;5004907;28;20679;-80
2021/12/12 10:24:01;;;;;;;6.47;1.90;;;;;;;6.67;62.44;98128.06;4999213;28;20255;-79
2021/12/12 10:26:49;;;;;;;;;;;;;;;6.56;63.23;98127.63;5004410;28;20221;-80
2021/12/12 10:29:24;;;;;;;5.63;1.52;;;;;;;6.71;62.75;98129.25;4985097;28;20124;-79
2021/12/12 10:31:56;;;;;;;5.68;1.27;;;;;;;6.72;62.57;98123.88;4957295;28;20141;-79
2021/12/12 10:34:26;;;;;;;2.72;1.00;;;;;;;6.84;62.06;98131.88;5001707;28;20246;-80
2021/12/12 10:37:04;;;;;;;4.03;1.15;;;;;;;6.87;62.19;98126.31;4973893;28;20604;-79
2021/12/12 10:39:34;;;;;;;3.67;1.60;;;;;;;7.01;62.38;98115.94;4991501;28;20212;-80
2021/12/12 10:42:05;;;;;;;6.30;1.98;;;;;;;6.84;62.23;98107.78;4986669;28;20193;-80
2021/12/12 10:44:36;;;;;;;3.70;1.00;;;;;;;7.07;62.52;98115.16;5000991;28;20193;-80
2021/12/12 10:47:07;;;;;;;3.53;1.73;;;;;;;7.08;61.89;98112.38;4951749;28;20829;-80
2021/12/12 10:50:11;;;;;;;4.45;1.30;;;;;;;6.85;62.97;98115.31;4990375;28;20212;-80
2021/12/12 10:52:44;;;;;;;6.50;2.38;;;;;;;6.99;62.25;98115.34;5011663;28;20272;-82
2021/12/12 10:55:21;;;;;;;3.60;1.40;;;;;;;7.10;62.22;98107.00;4997103;28;20262;-80
2021/12/12 10:58:02;;;;;;;6.90;2.28;;;;;;;6.97;62.16;98099.22;5000939;28;20272;-79
2021/12/12 11:00:33;;;;;;;6.40;1.65;;;;;;;6.80;63.70;98091.81;4980988;28;20103;-82
2021/12/12 11:03:06;;;;;;;7.00;2.10;;;;;;;6.70;64.37;98089.63;4980992;28;20325;-81
2021/12/12 11:05:34;;;;;;;7.85;1.58;;;;;;;6.85;64.03;98089.44;4965888;28;20210;-80
2021/12/12 11:08:11;;;;;;;4.15;1.60;;;;;;;6.99;63.29;98092.88;4975333;28;20198;-80
2021/12/12 11:10:39;;;;;;;7.10;1.92;;;;;;;7.11;63.93;98091.28;4990459;28;20360;-80
2021/12/12 11:13:17;;;;;;;7.97;1.85;;;;;;;7.20;63.64;98091.88;4978173;28;20190;-80
2021/12/12 11:15:53;;;;;;;6.90;1.60;;;;;;;7.24;63.13;98085.28;4989342;28;20193;-80
2021/12/12 11:18:50;;;;;;;6.95;1.80;;;;;;;7.24;63.30;98092.25;4973446;28;20194;-80
2021/12/12 11:21:26;;;;;;;6.47;1.75;;;;;;;7.23;63.63;98091.47;4990637;28;20178;-80
2021/12/12 11:24:11;;;;;;;8.68;2.80;;;;;;;7.37;62.95;98097.44;4987150;28;20202;-80
2021/12/12 11:26:42;;;;;;;4.20;1.67;;;;;;;7.24;63.88;98100.03;5013191;28;20622;-80
2021/12/12 11:29:23;;;;;;;4.55;1.67;;;;;;;7.49;62.99;98097.63;4990874;28;20158;-80
2021/12/12 11:31:55;;;;;;;5.65;2.10;;;;;;;7.38;63.66;98099.03;4961034;28;20202;-79
2021/12/12 11:34:22;;;;;;;6.97;2.05;;;;;;;7.50;63.12;98091.44;4978299;28;20192;-80
2021/12/12 11:36:54;;;;;;;4.60;2.28;;;;;;;7.60;63.14;98101.41;4966208;28;20197;-80
2021/12/12 11:39:36;;;;;;;4.85;1.77;;;;;;;7.49;63.21;98098.44;4996037;28;20286;-80
2021/12/12 11:42:12;;;;;;;5.18;2.03;;;;;;;7.44;63.92;98102.63;5002625;28;20706;-80
2021/12/12 11:44:52;;;;;;;4.75;1.95;;;;;;;7.42;63.78;98096.81;4996656;28;20686;-80
2021/12/12 11:47:35;;;;;;;3.88;1.77;;;;;;;7.37;64.50;98091.44;4970842;28;20638;-80
2021/12/12 11:50:08;;;;;;;4.07;1.90;;;;;;;7.49;63.86;98093.25;4986057;28;20333;-80
2021/12/12 11:52:54;;;;;;;5.68;2.25;;;;;;;7.47;64.68;98089.25;4996716;28;20252;-80
2021/12/12 11:55:27;;;;;;;3.10;1.70;;;;;;;7.49;63.80;98076.91;5005351;28;20187;-80
2021/12/12 11:58:13;;;;;;;6.85;1.85;;;;;;;7.58;64.41;98078.28;4996609;28;20246;-80
2021/12/12 12:00:42;;;;;;;4.95;1.83;;;;;;;7.30;65.64;98079.31;4990899;28;20243;-80
2021/12/12 12:03:38;;;;;;;3.00;1.70;;;;;;;7.51;65.38;98074.91;4985983;28;20653;-80
2021/12/12 12:06:21;;;;;;;6.00;2.63;;;;;;;7.40;65.25;98073.72;5014893;28;20112;-80
2021/12/12 12:09:05;;;;;;;6.65;2.30;;;;;;;7.59;65.57;98074.69;4996079;28;20126;-80
2021/12/12 12:12:08;;;;;;;5.20;2.33;;;;;;;7.62;66.43;98069.09;4985804;28;20286;-80
2021/12/12 12:15:05;;;;;;;5.10;1.65;;;;;;;7.63;65.62;98068.09;4980748;28;20182;-80
2021/12/12 12:17:49;;;;;;;3.50;1.77;;;;;;;7.60;65.89;98067.72;4996155;28;20158;-80
2021/12/12 12:20:29;;;;;;;7.07;1.93;;;;;;;7.68;66.05;98068.28;4995711;28;20291;-80
2021/12/12 12:23:32;;;;;;;6.50;2.35;;;;;;;7.78;64.97;98064.47;4984744;28;20202;-80